If you wish to contribute or participate in the discussions about articles you are invited to join SKYbrary as a registered user

 Actions

Poitiers-Biard Airport

From SKYbrary Wiki

LFBI
Airport
ICAO: LFBI – IATA: PIS
Summary
Name Poitiers-Biard Airport
Region Europe
Territory France FR.gif
Location , Poitou-Charentes
Serving Poitiers
Elevation 128.93 m
423 ft
423 ft128.93 m
Type medium airport
Coordinates 46° 35' 15.88" N, 0° 18' 24.00" E
Runways
Designator Length Width Surface ROPS
3/21 2350 m7,709.974 ft
45 m147.638 ft
ASP yes/yes


METAR
Observation LFBI 222230Z AUTO 03007KT CAVOK 17/08 Q1023 NOSIG
Station Poitiers
Date/Time 22 August 2019 22:30:00
Wind direction 30°
Wind speed 07 kts
Lowest cloud amount clouds and visibility OK
Temperature 17°C
Dew point 8°C
Humidity 55%
QNH 1023 hPa
Weather condition n/a